sensor_id;sensor_type;location;lat;lon;timestamp;pressure;altitude;pressure_sealevel;temperature;humidity
58658;BME280;44428;45.630;13.786;2022-08-19T00:01:48;100622.84;;;23.49;67.55
58658;BME280;44428;45.630;13.786;2022-08-19T00:04:16;100629.06;;;23.50;66.32
58658;BME280;44428;45.630;13.786;2022-08-19T00:06:43;100632.00;;;23.55;65.76
58658;BME280;44428;45.630;13.786;2022-08-19T00:09:11;100622.50;;;23.59;66.39
58658;BME280;44428;45.630;13.786;2022-08-19T00:11:39;100654.09;;;23.65;65.81
58658;BME280;44428;45.630;13.786;2022-08-19T00:14:06;100686.06;;;23.68;65.50
58658;BME280;44428;45.630;13.786;2022-08-19T00:16:34;100702.63;;;23.65;66.05
58658;BME280;44428;45.630;13.786;2022-08-19T00:18:59;100702.63;;;23.65;66.38
58658;BME280;44428;45.630;13.786;2022-08-19T00:21:26;100693.94;;;23.63;66.21
58658;BME280;44428;45.630;13.786;2022-08-19T00:23:55;100673.47;;;23.54;66.20
58658;BME280;44428;45.630;13.786;2022-08-19T00:26:26;100642.81;;;23.55;66.99
58658;BME280;44428;45.630;13.786;2022-08-19T00:28:52;100634.59;;;23.63;65.16
58658;BME280;44428;45.630;13.786;2022-08-19T00:31:18;100666.94;;;23.63;66.02
58658;BME280;44428;45.630;13.786;2022-08-19T00:33:44;100677.34;;;23.66;66.23
58658;BME280;44428;45.630;13.786;2022-08-19T00:36:10;100673.53;;;23.75;64.08
58658;BME280;44428;45.630;13.786;2022-08-19T00:38:37;100662.13;;;23.80;64.19
58658;BME280;44428;45.630;13.786;2022-08-19T00:41:06;100657.94;;;23.77;65.15
58658;BME280;44428;45.630;13.786;2022-08-19T00:43:33;100637.16;;;23.71;65.07
58658;BME280;44428;45.630;13.786;2022-08-19T00:45:59;100650.03;;;23.69;65.04
58658;BME280;44428;45.630;13.786;2022-08-19T00:48:24;100641.63;;;23.64;65.46
58658;BME280;44428;45.630;13.786;2022-08-19T00:50:51;100648.69;;;23.65;64.59
58658;BME280;44428;45.630;13.786;2022-08-19T00:53:22;100673.25;;;23.70;65.27
58658;BME280;44428;45.630;13.786;2022-08-19T00:55:51;100689.50;;;23.77;64.43
58658;BME280;44428;45.630;13.786;2022-08-19T00:58:20;100683.75;;;23.87;63.25
58658;BME280;44428;45.630;13.786;2022-08-19T01:00:49;100682.09;;;23.86;62.95
58658;BME280;44428;45.630;13.786;2022-08-19T01:03:19;100702.91;;;23.92;65.85
58658;BME280;44428;45.630;13.786;2022-08-19T01:05:46;100687.50;;;23.86;68.19
58658;BME280;44428;45.630;13.786;2022-08-19T01:08:14;100721.69;;;23.79;69.61
58658;BME280;44428;45.630;13.786;2022-08-19T01:10:45;100742.47;;;23.63;73.15
58658;BME280;44428;45.630;13.786;2022-08-19T01:13:14;100744.31;;;23.05;79.97
58658;BME280;44428;45.630;13.786;2022-08-19T01:15:46;100773.31;;;22.73;82.78
58658;BME280;44428;45.630;13.786;2022-08-19T01:18:16;100873.03;;;22.65;84.47
58658;BME280;44428;45.630;13.786;2022-08-19T01:20:43;101003.63;;;22.69;84.76
58658;BME280;44428;45.630;13.786;2022-08-19T01:23:10;101087.28;;;22.45;85.96
58658;BME280;44428;45.630;13.786;2022-08-19T01:25:50;101161.44;;;22.24;90.67
58658;BME280;44428;45.630;13.786;2022-08-19T01:28:20;101224.34;;;22.07;93.37
58658;BME280;44428;45.630;13.786;2022-08-19T01:30:48;101248.56;;;21.99;95.23
58658;BME280;44428;45.630;13.786;2022-08-19T01:33:13;101231.41;;;22.00;96.29
58658;BME280;44428;45.630;13.786;2022-08-19T01:35:40;101215.13;;;21.77;97.49
58658;BME280;44428;45.630;13.786;2022-08-19T01:38:08;101223.69;;;21.64;99.66
58658;BME280;44428;45.630;13.786;2022-08-19T01:40:38;101192.44;;;21.55;98.19
58658;BME280;44428;45.630;13.786;2022-08-19T01:43:05;101108.59;;;21.43;98.77
58658;BME280;44428;45.630;13.786;2022-08-19T01:45:33;101039.16;;;21.30;100.00
58658;BME280;44428;45.630;13.786;2022-08-19T01:48:00;101065.03;;;21.15;100.00
58658;BME280;44428;45.630;13.786;2022-08-19T01:50:26;101088.88;;;21.18;100.00
58658;BME280;44428;45.630;13.786;2022-08-19T01:52:53;101105.34;;;21.15;100.00
58658;BME280;44428;45.630;13.786;2022-08-19T01:55:21;101086.72;;;21.13;100.00
58658;BME280;44428;45.630;13.786;2022-08-19T01:57:52;101052.59;;;21.05;100.00
58658;BME280;44428;45.630;13.786;2022-08-19T02:00:22;100993.84;;;21.02;100.00
58658;BME280;44428;45.630;13.786;2022-08-19T02:02:48;100956.56;;;20.99;100.00
58658;BME280;44428;45.630;13.786;2022-08-19T02:05:14;100976.72;;;20.95;100.00
58658;BME280;44428;45.630;13.786;2022-08-19T02:07:44;101063.34;;;21.05;100.00
58658;BME280;44428;45.630;13.786;2022-08-19T02:10:14;101207.47;;;21.07;100.00
58658;BME280;44428;45.630;13.786;2022-08-19T02:12:41;101318.09;;;21.02;100.00
58658;BME280;44428;45.630;13.786;2022-08-19T02:15:07;101286.03;;;21.09;100.00
58658;BME280;44428;45.630;13.786;2022-08-19T02:17:33;101174.88;;;21.18;100.00
58658;BME280;44428;45.630;13.786;2022-08-19T02:19:59;101162.28;;;21.10;100.00
58658;BME280;44428;45.630;13.786;2022-08-19T02:22:25;101050.25;;;21.11;100.00
58658;BME280;44428;45.630;13.786;2022-08-19T02:24:55;100958.25;;;21.00;100.00
58658;BME280;44428;45.630;13.786;2022-08-19T02:27:21;100922.69;;;20.74;100.00
58658;BME280;44428;45.630;13.786;2022-08-19T02:29:48;100904.56;;;20.68;100.00
58658;BME280;44428;45.630;13.786;2022-08-19T02:32:15;100871.38;;;20.61;100.00
58658;BME280;44428;45.630;13.786;2022-08-19T02:34:41;100858.94;;;20.59;100.00
58658;BME280;44428;45.630;13.786;2022-08-19T02:37:07;100872.34;;;20.59;100.00
58658;BME280;44428;45.630;13.786;2022-08-19T02:39:52;100908.63;;;20.64;100.00
58658;BME280;44428;45.630;13.786;2022-08-19T02:42:18;100915.97;;;20.78;95.64
58658;BME280;44428;45.630;13.786;2022-08-19T02:44:44;100902.88;;;20.83;91.59
58658;BME280;44428;45.630;13.786;2022-08-19T02:47:10;100898.69;;;20.80;92.16
58658;BME280;44428;45.630;13.786;2022-08-19T02:49:36;100882.75;;;20.71;92.77
58658;BME280;44428;45.630;13.786;2022-08-19T02:52:02;100876.41;;;20.64;93.31
58658;BME280;44428;45.630;13.786;2022-08-19T02:54:28;100872.66;;;20.81;92.36
58658;BME280;44428;45.630;13.786;2022-08-19T02:56:54;100862.25;;;20.78;93.66
58658;BME280;44428;45.630;13.786;2022-08-19T02:59:20;100864.97;;;20.70;91.40
58658;BME280;44428;45.630;13.786;2022-08-19T03:01:46;100838.13;;;20.70;90.75
58658;BME280;44428;45.630;13.786;2022-08-19T03:04:14;100845.84;;;20.65;92.08
58658;BME280;44428;45.630;13.786;2022-08-19T03:06:44;100860.28;;;20.55;92.53
58658;BME280;44428;45.630;13.786;2022-08-19T03:09:11;100838.63;;;20.57;92.23
58658;BME280;44428;45.630;13.786;2022-08-19T03:11:38;100827.38;;;20.53;93.49
58658;BME280;44428;45.630;13.786;2022-08-19T03:14:06;100827.38;;;20.53;91.32
58658;BME280;44428;45.630;13.786;2022-08-19T03:16:34;100791.28;;;20.48;92.97
58658;BME280;44428;45.630;13.786;2022-08-19T03:19:01;100777.72;;;20.49;92.35
58658;BME280;44428;45.630;13.786;2022-08-19T03:21:30;100774.00;;;20.50;92.53
58658;BME280;44428;45.630;13.786;2022-08-19T03:23:59;100789.81;;;20.53;90.94
58658;BME280;44428;45.630;13.786;2022-08-19T03:26:26;100813.25;;;20.51;91.37
58658;BME280;44428;45.630;13.786;2022-08-19T03:28:51;100825.69;;;20.44;89.13
58658;BME280;44428;45.630;13.786;2022-08-19T03:31:21;100828.03;;;20.47;87.76
58658;BME280;44428;45.630;13.786;2022-08-19T03:33:48;100844.47;;;20.44;88.87
58658;BME280;44428;45.630;13.786;2022-08-19T03:36:23;100852.72;;;20.43;89.74
58658;BME280;44428;45.630;13.786;2022-08-19T03:38:55;100849.19;;;20.50;91.07
58658;BME280;44428;45.630;13.786;2022-08-19T03:41:24;100815.63;;;20.63;89.33
58658;BME280;44428;45.630;13.786;2022-08-19T03:43:51;100822.69;;;20.64;88.83
58658;BME280;44428;45.630;13.786;2022-08-19T03:46:21;100820.84;;;20.56;89.50
58658;BME280;44428;45.630;13.786;2022-08-19T03:48:47;100822.03;;;20.53;89.53
58658;BME280;44428;45.630;13.786;2022-08-19T03:51:22;100852.22;;;20.55;89.04
58658;BME280;44428;45.630;13.786;2022-08-19T03:53:50;100883.78;;;20.62;88.75
58658;BME280;44428;45.630;13.786;2022-08-19T03:56:17;100931.09;;;20.71;88.88
58658;BME280;44428;45.630;13.786;2022-08-19T03:58:43;100968.00;;;20.77;86.95
58658;BME280;44428;45.630;13.786;2022-08-19T04:01:11;101011.97;;;20.84;84.26
58658;BME280;44428;45.630;13.786;2022-08-19T04:03:38;101033.47;;;20.84;86.37
58658;BME280;44428;45.630;13.786;2022-08-19T04:06:11;101067.41;;;20.85;87.14
58658;BME280;44428;45.630;13.786;2022-08-19T04:08:39;101112.00;;;20.70;90.62
58658;BME280;44428;45.630;13.786;2022-08-19T04:11:13;101135.38;;;20.51;93.71
58658;BME280;44428;45.630;13.786;2022-08-19T04:13:39;101137.00;;;20.36;95.46
58658;BME280;44428;45.630;13.786;2022-08-19T04:16:05;101121.88;;;20.27;96.72
58658;BME280;44428;45.630;13.786;2022-08-19T04:18:32;101090.88;;;20.24;96.68
58658;BME280;44428;45.630;13.786;2022-08-19T04:20:59;101063.81;;;20.18;98.40
58658;BME280;44428;45.630;13.786;2022-08-19T04:23:25;101053.59;;;20.13;99.16
58658;BME280;44428;45.630;13.786;2022-08-19T04:25:52;101055.03;;;19.99;100.00
58658;BME280;44428;45.630;13.786;2022-08-19T04:28:18;101056.31;;;19.87;98.38
58658;BME280;44428;45.630;13.786;2022-08-19T04:30:46;101039.50;;;19.77;95.96
58658;BME280;44428;45.630;13.786;2022-08-19T04:33:14;101030.44;;;19.78;94.75
58658;BME280;44428;45.630;13.786;2022-08-19T04:35:43;101010.56;;;19.88;92.93
58658;BME280;44428;45.630;13.786;2022-08-19T04:38:10;100988.28;;;19.88;93.18
58658;BME280;44428;45.630;13.786;2022-08-19T04:40:47;100950.00;;;19.78;93.33
58658;BME280;44428;45.630;13.786;2022-08-19T04:43:33;100877.25;;;19.73;93.48
58658;BME280;44428;45.630;13.786;2022-08-19T04:46:07;100811.25;;;19.72;91.67
58658;BME280;44428;45.630;13.786;2022-08-19T04:48:34;100759.13;;;19.66;89.39
58658;BME280;44428;45.630;13.786;2022-08-19T04:51:01;100726.47;;;19.71;84.63
58658;BME280;44428;45.630;13.786;2022-08-19T04:53:31;100706.00;;;19.70;82.64
58658;BME280;44428;45.630;13.786;2022-08-19T04:55:58;100703.66;;;19.66;82.55
58658;BME280;44428;45.630;13.786;2022-08-19T04:58:27;100710.69;;;19.59;84.22
58658;BME280;44428;45.630;13.786;2022-08-19T05:00:53;100702.28;;;19.54;85.49
58658;BME280;44428;45.630;13.786;2022-08-19T05:03:20;100690.22;;;19.50;84.78
58658;BME280;44428;45.630;13.786;2022-08-19T05:05:48;100695.59;;;19.50;86.08
58658;BME280;44428;45.630;13.786;2022-08-19T05:08:17;100687.22;;;19.53;84.63
58658;BME280;44428;45.630;13.786;2022-08-19T05:10:46;100673.81;;;19.53;83.33
58658;BME280;44428;45.630;13.786;2022-08-19T05:13:13;100651.72;;;19.59;83.05
58658;BME280;44428;45.630;13.786;2022-08-19T05:15:40;100647.69;;;19.63;80.29
58658;BME280;44428;45.630;13.786;2022-08-19T05:18:06;100648.38;;;19.74;81.07
58658;BME280;44428;45.630;13.786;2022-08-19T05:20:50;100664.13;;;19.77;81.90
58658;BME280;44428;45.630;13.786;2022-08-19T05:23:51;100645.38;;;19.77;80.33
58658;BME280;44428;45.630;13.786;2022-08-19T05:26:16;100650.56;;;19.78;79.40
58658;BME280;44428;45.630;13.786;2022-08-19T05:28:42;100662.09;;;19.79;78.71
58658;BME280;44428;45.630;13.786;2022-08-19T05:31:08;100622.56;;;19.81;79.08
58658;BME280;44428;45.630;13.786;2022-08-19T05:33:33;100606.13;;;19.84;78.01
58658;BME280;44428;45.630;13.786;2022-08-19T05:36:01;100614.19;;;19.92;77.01
58658;BME280;44428;45.630;13.786;2022-08-19T05:38:26;100614.81;;;20.02;75.76
58658;BME280;44428;45.630;13.786;2022-08-19T05:40:52;100591.34;;;20.12;76.46
58658;BME280;44428;45.630;13.786;2022-08-19T05:43:18;100585.28;;;20.19;74.22
58658;BME280;44428;45.630;13.786;2022-08-19T05:45:44;100598.59;;;20.35;73.58
58658;BME280;44428;45.630;13.786;2022-08-19T05:48:10;100593.50;;;20.48;73.47
58658;BME280;44428;45.630;13.786;2022-08-19T05:50:40;100618.66;;;20.64;71.15
58658;BME280;44428;45.630;13.786;2022-08-19T05:53:07;100630.47;;;20.77;70.00
58658;BME280;44428;45.630;13.786;2022-08-19T05:55:35;100632.28;;;20.85;69.33
58658;BME280;44428;45.630;13.786;2022-08-19T05:58:03;100605.22;;;20.95;68.82
58658;BME280;44428;45.630;13.786;2022-08-19T06:00:29;100586.47;;;21.10;68.83
58658;BME280;44428;45.630;13.786;2022-08-19T06:02:56;100577.50;;;21.17;68.71
58658;BME280;44428;45.630;13.786;2022-08-19T06:05:25;100592.44;;;21.20;68.21
58658;BME280;44428;45.630;13.786;2022-08-19T06:07:50;100553.72;;;21.29;68.54
58658;BME280;44428;45.630;13.786;2022-08-19T06:10:16;100566.75;;;21.40;68.30
58658;BME280;44428;45.630;13.786;2022-08-19T06:12:42;100562.63;;;21.53;67.29
58658;BME280;44428;45.630;13.786;2022-08-19T06:15:11;100570.88;;;21.66;65.73
58658;BME280;44428;45.630;13.786;2022-08-19T06:17:38;100551.97;;;21.74;66.42
58658;BME280;44428;45.630;13.786;2022-08-19T06:20:07;100562.53;;;21.90;65.27
58658;BME280;44428;45.630;13.786;2022-08-19T06:22:38;100527.31;;;22.00;64.44
58658;BME280;44428;45.630;13.786;2022-08-19T06:25:04;100518.94;;;22.10;64.71
58658;BME280;44428;45.630;13.786;2022-08-19T06:27:30;100513.75;;;22.23;63.69
58658;BME280;44428;45.630;13.786;2022-08-19T06:29:57;100512.22;;;22.35;63.63
58658;BME280;44428;45.630;13.786;2022-08-19T06:32:23;100519.00;;;22.46;62.06
58658;BME280;44428;45.630;13.786;2022-08-19T06:34:49;100523.69;;;22.59;62.85
58658;BME280;44428;45.630;13.786;2022-08-19T06:37:15;100523.34;;;22.69;62.64
58658;BME280;44428;45.630;13.786;2022-08-19T06:39:43;100525.09;;;22.76;63.38
58658;BME280;44428;45.630;13.786;2022-08-19T06:42:11;100523.19;;;22.92;62.31
58658;BME280;44428;45.630;13.786;2022-08-19T06:44:40;100522.94;;;23.08;62.50
58658;BME280;44428;45.630;13.786;2022-08-19T06:47:08;100526.72;;;23.42;61.31
58658;BME280;44428;45.630;13.786;2022-08-19T06:49:35;100516.34;;;23.67;61.59
58658;BME280;44428;45.630;13.786;2022-08-19T06:52:02;100516.94;;;23.97;61.03
58658;BME280;44428;45.630;13.786;2022-08-19T06:54:28;100528.31;;;24.34;60.03
58658;BME280;44428;45.630;13.786;2022-08-19T06:56:56;100517.97;;;24.51;60.10
58658;BME280;44428;45.630;13.786;2022-08-19T06:59:24;100513.44;;;24.51;59.11
58658;BME280;44428;45.630;13.786;2022-08-19T07:01:55;100498.31;;;24.90;55.88
58658;BME280;44428;45.630;13.786;2022-08-19T07:04:25;100478.75;;;25.41;54.85
58658;BME280;44428;45.630;13.786;2022-08-19T07:07:00;100475.63;;;25.57;51.38
58658;BME280;44428;45.630;13.786;2022-08-19T07:09:26;100463.06;;;25.76;49.49
58658;BME280;44428;45.630;13.786;2022-08-19T07:11:53;100473.03;;;25.89;49.82
58658;BME280;44428;45.630;13.786;2022-08-19T07:14:22;100458.38;;;27.30;46.47
58658;BME280;44428;45.630;13.786;2022-08-19T07:16:50;100460.63;;;27.15;45.06
58658;BME280;44428;45.630;13.786;2022-08-19T07:19:18;100427.31;;;26.44;45.90
58658;BME280;44428;45.630;13.786;2022-08-19T07:21:47;100438.34;;;26.18;46.57
58658;BME280;44428;45.630;13.786;2022-08-19T07:24:13;100429.59;;;26.16;47.52
58658;BME280;44428;45.630;13.786;2022-08-19T07:26:41;100436.22;;;26.26;46.47
58658;BME280;44428;45.630;13.786;2022-08-19T07:29:07;100430.38;;;26.23;47.13
58658;BME280;44428;45.630;13.786;2022-08-19T07:31:34;100440.34;;;26.29;47.63
58658;BME280;44428;45.630;13.786;2022-08-19T07:34:06;100445.13;;;27.59;45.15
58658;BME280;44428;45.630;13.786;2022-08-19T07:36:33;100459.06;;;29.02;41.68
58658;BME280;44428;45.630;13.786;2022-08-19T07:39:02;100462.84;;;28.47;43.81
58658;BME280;44428;45.630;13.786;2022-08-19T07:41:30;100467.97;;;28.06;44.85
58658;BME280;44428;45.630;13.786;2022-08-19T07:43:58;100465.81;;;27.78;45.64
58658;BME280;44428;45.630;13.786;2022-08-19T07:46:24;100462.16;;;28.03;45.71
58658;BME280;44428;45.630;13.786;2022-08-19T07:48:51;100474.03;;;28.81;44.70
58658;BME280;44428;45.630;13.786;2022-08-19T07:51:19;100472.94;;;29.24;43.95
58658;BME280;44428;45.630;13.786;2022-08-19T07:53:47;100484.31;;;28.79;44.85
58658;BME280;44428;45.630;13.786;2022-08-19T07:56:14;100481.31;;;28.38;46.49
58658;BME280;44428;45.630;13.786;2022-08-19T07:58:49;100490.06;;;27.73;46.58
58658;BME280;44428;45.630;13.786;2022-08-19T08:01:18;100506.19;;;27.50;47.27
58658;BME280;44428;45.630;13.786;2022-08-19T08:03:45;100507.41;;;27.04;46.60
58658;BME280;44428;45.630;13.786;2022-08-19T08:06:29;100514.91;;;27.02;47.75
58658;BME280;44428;45.630;13.786;2022-08-19T08:09:16;100517.81;;;27.07;47.76
58658;BME280;44428;45.630;13.786;2022-08-19T08:11:54;100516.50;;;27.16;47.79
58658;BME280;44428;45.630;13.786;2022-08-19T08:14:28;100535.72;;;27.08;48.77
58658;BME280;44428;45.630;13.786;2022-08-19T08:16:54;100535.41;;;26.98;48.96
58658;BME280;44428;45.630;13.786;2022-08-19T08:19:22;100540.06;;;26.84;48.35
58658;BME280;44428;45.630;13.786;2022-08-19T08:21:49;100548.31;;;27.02;49.36
58658;BME280;44428;45.630;13.786;2022-08-19T08:24:16;100547.19;;;27.42;49.99
58658;BME280;44428;45.630;13.786;2022-08-19T08:26:44;100550.56;;;28.54;46.41
58658;BME280;44428;45.630;13.786;2022-08-19T08:29:21;100548.63;;;31.79;39.54
58658;BME280;44428;45.630;13.786;2022-08-19T08:31:47;100545.00;;;32.89;36.35
58658;BME280;44428;45.630;13.786;2022-08-19T08:34:14;100550.38;;;32.78;35.81
58658;BME280;44428;45.630;13.786;2022-08-19T08:36:52;100549.66;;;32.61;36.59
58658;BME280;44428;45.630;13.786;2022-08-19T08:39:20;100556.47;;;31.20;39.19
58658;BME280;44428;45.630;13.786;2022-08-19T08:41:53;100551.00;;;30.05;41.59
58658;BME280;44428;45.630;13.786;2022-08-19T08:44:31;100546.31;;;29.65;42.51
58658;BME280;44428;45.630;13.786;2022-08-19T08:47:02;100535.44;;;29.65;43.39
58658;BME280;44428;45.630;13.786;2022-08-19T08:52:10;100538.75;;;31.39;38.97
58658;BME280;44428;45.630;13.786;2022-08-19T08:54:41;100552.22;;;30.67;40.69
58658;BME280;44428;45.630;13.786;2022-08-19T08:57:13;100555.22;;;30.25;42.43
58658;BME280;44428;45.630;13.786;2022-08-19T09:00:22;100557.88;;;29.96;44.10
58658;BME280;44428;45.630;13.786;2022-08-19T09:02:49;100578.75;;;29.79;45.20
58658;BME280;44428;45.630;13.786;2022-08-19T09:05:15;100570.19;;;29.40;44.79
58658;BME280;44428;45.630;13.786;2022-08-19T09:08:00;100572.75;;;29.11;45.23
58658;BME280;44428;45.630;13.786;2022-08-19T09:10:37;100565.19;;;29.13;44.83
58658;BME280;44428;45.630;13.786;2022-08-19T09:13:19;100575.53;;;28.93;44.25
58658;BME280;44428;45.630;13.786;2022-08-19T09:15:53;100568.25;;;29.05;45.12
58658;BME280;44428;45.630;13.786;2022-08-19T09:18:20;100553.63;;;29.30;43.80
58658;BME280;44428;45.630;13.786;2022-08-19T09:20:46;100559.53;;;30.21;41.17
58658;BME280;44428;45.630;13.786;2022-08-19T09:23:15;100558.75;;;30.37;39.90
58658;BME280;44428;45.630;13.786;2022-08-19T09:25:41;100557.34;;;30.23;39.75
58658;BME280;44428;45.630;13.786;2022-08-19T09:28:07;100547.78;;;30.77;39.46
58658;BME280;44428;45.630;13.786;2022-08-19T09:30:40;100562.34;;;32.72;36.51
58658;BME280;44428;45.630;13.786;2022-08-19T09:33:06;100557.75;;;31.68;37.22
58658;BME280;44428;45.630;13.786;2022-08-19T09:35:33;100551.41;;;31.12;38.55
58658;BME280;44428;45.630;13.786;2022-08-19T09:37:59;100548.66;;;30.78;39.90
58658;BME280;44428;45.630;13.786;2022-08-19T09:40:27;100552.13;;;30.33;40.80
58658;BME280;44428;45.630;13.786;2022-08-19T09:42:54;100558.28;;;30.17;41.45
58658;BME280;44428;45.630;13.786;2022-08-19T09:45:21;100550.56;;;30.66;39.79
58658;BME280;44428;45.630;13.786;2022-08-19T09:47:48;100549.16;;;31.09;39.15
58658;BME280;44428;45.630;13.786;2022-08-19T09:50:16;100537.25;;;33.45;35.85
58658;BME280;44428;45.630;13.786;2022-08-19T09:52:43;100513.13;;;34.62;33.96
58658;BME280;44428;45.630;13.786;2022-08-19T09:55:10;100527.13;;;34.81;33.10
58658;BME280;44428;45.630;13.786;2022-08-19T09:57:36;100500.97;;;35.71;32.69
58658;BME280;44428;45.630;13.786;2022-08-19T10:00:04;100501.97;;;35.95;31.89
58658;BME280;44428;45.630;13.786;2022-08-19T10:02:33;100487.06;;;35.11;33.11
58658;BME280;44428;45.630;13.786;2022-08-19T10:04:59;100510.59;;;33.72;35.13
58658;BME280;44428;45.630;13.786;2022-08-19T10:07:43;100517.25;;;32.48;37.83
58658;BME280;44428;45.630;13.786;2022-08-19T10:10:10;100517.53;;;31.63;40.05
58658;BME280;44428;45.630;13.786;2022-08-19T10:12:36;100537.75;;;30.78;41.41
58658;BME280;44428;45.630;13.786;2022-08-19T10:15:03;100553.56;;;30.35;42.75
58658;BME280;44428;45.630;13.786;2022-08-19T10:17:28;100564.13;;;30.08;43.63
58658;BME280;44428;45.630;13.786;2022-08-19T10:19:54;100567.81;;;29.55;45.63
58658;BME280;44428;45.630;13.786;2022-08-19T10:22:20;100545.34;;;29.48;47.93
58658;BME280;44428;45.630;13.786;2022-08-19T10:24:46;100566.16;;;29.31;47.88
58658;BME280;44428;45.630;13.786;2022-08-19T10:27:12;100592.56;;;29.00;52.88
58658;BME280;44428;45.630;13.786;2022-08-19T10:29:39;100591.28;;;28.72;56.24
58658;BME280;44428;45.630;13.786;2022-08-19T10:32:07;100620.00;;;28.13;57.68
58658;BME280;44428;45.630;13.786;2022-08-19T10:34:35;100577.84;;;27.10;61.90
58658;BME280;44428;45.630;13.786;2022-08-19T10:37:02;100561.31;;;26.87;64.58
58658;BME280;44428;45.630;13.786;2022-08-19T10:39:30;100557.34;;;26.58;66.06
58658;BME280;44428;45.630;13.786;2022-08-19T10:42:03;100583.72;;;26.24;67.75
58658;BME280;44428;45.630;13.786;2022-08-19T10:44:32;100622.94;;;25.75;72.35
58658;BME280;44428;45.630;13.786;2022-08-19T10:47:19;100659.03;;;24.94;69.72
58658;BME280;44428;45.630;13.786;2022-08-19T10:49:54;100672.72;;;24.86;65.43
58658;BME280;44428;45.630;13.786;2022-08-19T10:52:49;100682.84;;;25.19;63.76
58658;BME280;44428;45.630;13.786;2022-08-19T10:55:21;100696.66;;;25.64;63.57
58658;BME280;44428;45.630;13.786;2022-08-19T10:58:14;100715.00;;;25.88;59.69
58658;BME280;44428;45.630;13.786;2022-08-19T11:00:43;100720.44;;;25.88;60.21
58658;BME280;44428;45.630;13.786;2022-08-19T11:03:13;100705.41;;;26.12;59.22
58658;BME280;44428;45.630;13.786;2022-08-19T11:05:41;100700.34;;;26.56;59.46
58658;BME280;44428;45.630;13.786;2022-08-19T11:08:17;100717.88;;;26.60;59.15
58658;BME280;44428;45.630;13.786;2022-08-19T11:10:44;100724.84;;;26.87;56.27
58658;BME280;44428;45.630;13.786;2022-08-19T11:13:13;100710.38;;;28.02;55.22
58658;BME280;44428;45.630;13.786;2022-08-19T11:15:40;100708.81;;;29.11;52.97
58658;BME280;44428;45.630;13.786;2022-08-19T11:18:07;100724.41;;;29.88;53.87
58658;BME280;44428;45.630;13.786;2022-08-19T11:20:35;100733.69;;;30.22;49.38
58658;BME280;44428;45.630;13.786;2022-08-19T11:23:02;100729.72;;;29.41;50.82
58658;BME280;44428;45.630;13.786;2022-08-19T11:25:38;100720.72;;;28.92;52.81
58658;BME280;44428;45.630;13.786;2022-08-19T11:28:06;100723.78;;;28.84;51.20
58658;BME280;44428;45.630;13.786;2022-08-19T11:30:37;100723.22;;;28.93;51.58
58658;BME280;44428;45.630;13.786;2022-08-19T11:33:06;100707.78;;;29.24;51.00
58658;BME280;44428;45.630;13.786;2022-08-19T11:35:37;100712.81;;;30.04;53.43
58658;BME280;44428;45.630;13.786;2022-08-19T11:38:08;100705.56;;;30.80;46.21
58658;BME280;44428;45.630;13.786;2022-08-19T11:40:35;100706.97;;;31.12;47.61
58658;BME280;44428;45.630;13.786;2022-08-19T11:43:07;100711.16;;;31.31;44.32
58658;BME280;44428;45.630;13.786;2022-08-19T11:45:41;100725.97;;;31.64;48.17
58658;BME280;44428;45.630;13.786;2022-08-19T11:48:17;100728.03;;;32.24;46.49
58658;BME280;44428;45.630;13.786;2022-08-19T11:50:52;100731.22;;;32.55;41.36
58658;BME280;44428;45.630;13.786;2022-08-19T11:53:36;100740.25;;;32.16;43.71
58658;BME280;44428;45.630;13.786;2022-08-19T11:56:24;100741.56;;;31.80;45.47
58658;BME280;44428;45.630;13.786;2022-08-19T11:59:14;100732.56;;;31.51;44.89
58658;BME280;44428;45.630;13.786;2022-08-19T12:01:42;100750.59;;;31.35;46.95
58658;BME280;44428;45.630;13.786;2022-08-19T12:04:10;100753.81;;;31.20;46.55
58658;BME280;44428;45.630;13.786;2022-08-19T12:06:38;100764.69;;;31.32;48.03
58658;BME280;44428;45.630;13.786;2022-08-19T12:09:17;100754.13;;;31.36;44.19
58658;BME280;44428;45.630;13.786;2022-08-19T12:11:53;100757.47;;;31.26;45.43
58658;BME280;44428;45.630;13.786;2022-08-19T12:14:22;100750.66;;;31.12;46.13
58658;BME280;44428;45.630;13.786;2022-08-19T12:16:49;100745.47;;;31.56;44.27
58658;BME280;44428;45.630;13.786;2022-08-19T12:19:22;100746.97;;;31.63;44.12
58658;BME280;44428;45.630;13.786;2022-08-19T12:21:51;100747.47;;;31.77;43.18
58658;BME280;44428;45.630;13.786;2022-08-19T12:24:25;100736.91;;;32.14;44.36
58658;BME280;44428;45.630;13.786;2022-08-19T12:26:55;100726.56;;;32.55;45.33
58658;BME280;44428;45.630;13.786;2022-08-19T12:29:25;100727.28;;;32.90;42.04
58658;BME280;44428;45.630;13.786;2022-08-19T12:31:56;100723.59;;;33.01;41.27
58658;BME280;44428;45.630;13.786;2022-08-19T12:34:29;100709.56;;;33.19;41.99
58658;BME280;44428;45.630;13.786;2022-08-19T12:37:02;100704.50;;;33.06;41.17
58658;BME280;44428;45.630;13.786;2022-08-19T12:39:40;100704.41;;;33.23;42.55
58658;BME280;44428;45.630;13.786;2022-08-19T12:42:12;100693.94;;;32.93;41.19
58658;BME280;44428;45.630;13.786;2022-08-19T12:44:46;100701.84;;;33.11;41.17
58658;BME280;44428;45.630;13.786;2022-08-19T12:47:16;100699.84;;;32.84;39.24
58658;BME280;44428;45.630;13.786;2022-08-19T12:49:43;100703.25;;;32.31;41.45
58658;BME280;44428;45.630;13.786;2022-08-19T12:52:10;100705.44;;;32.12;41.43
58658;BME280;44428;45.630;13.786;2022-08-19T12:54:47;100712.72;;;32.23;39.68